Aérodrome :
LOGIN :

S'inscrire | Disclaimer

   EN    FR    IT 

 










Légende :    VFR   VFR Marginal   IFR   IFR Intensif   IFR Très Intensif
Visi : 
Plafond : 
>= 8 km
>= 3000ft
5 à 8 km
1000 à 3000 ft
1500m à 5 km
500 à 1000 ft
800 à 1500m
200 à 500 ft
< 800m
< 200 ft
Symboles :   Orages  Brouillard  Fortes neiges  Fortes précipitations  Vent > 20 kt
SIGMETs :   Divers  Orages  Givrage  Turbulence  Onde Orograph.  Cendres Volcan.







- Altitude de l'aérodrome : 26 ft
- Code IATA : BIA
- Voir les cartes d'approche


LFKB - Bastia

DERNIER METAR :
  • 200030Z AUTO VRB03KT CAVOK 24/18 Q1014 NOSIG

METARs EXPIRÉS :
  • 200000Z AUTO 21003KT CAVOK 23/18 Q1014 NOSIG
  • 192330Z AUTO 24004KT CAVOK 24/18 Q1015 NOSIG
  • 192300Z AUTO VRB02KT 9999 FEW100 24/18 Q1015 NOSIG
  • 192230Z AUTO 24005KT CAVOK 25/19 Q1015 NOSIG
  • 192200Z AUTO 23004KT CAVOK 24/19 Q1015 TEMPO TS FEW040CB

TAF TAF LFKB
Valide du 19 à 21h jusqu'au 20 à 21h UTC


192000Z 1921/2021 25005KT 9999 FEW040 SCT150 TX32/2012Z TN23/2003Z
PROB40
TEMPO 1921/1923 TS FEW040CB
TEMPO 2012/2018 FEW040TCU
ATIS : +33 4 95 59 19 40
Pas de NOTAMs connus pour ce terrain.



MET'MAP, la Météo Aéronautique d'un coup d'oeil ! - Copyright ORBIFLY Décembre 2007 - Disclaimer

ORBIFLY MET'MAP TEAM :

Programmation & Développement : Alexandra Zaïnal
Conception & Développement : Baudouin d'Aumeries
Co-Programmation & Développement : Marc-Olivier Méhu
Soutien technique & logistique : Manuel Goepfert

Contact : metmap@orbifly.com




SOURCES & CREDITS :

   NOAA